Time;durP1;ratioP1;P1;durP2;ratioP2;P2;SDS_P1;SDS_P2;PMS_P1;PMS_P2;Temp;Humidity;BMP_temperature;BMP_pressure;BME280_temperature;BME280_humidity;BME280_pressure;Samples;Min_cycle;Max_cycle;Signal;HPM_P1;HPM_P2
2022/09/21 00:01:22;;;;;;;6.80;4.90;;;;;;;8.86;82.67;98561.31;104406;1276;61958;-24
2022/09/21 00:03:53;;;;;;;6.30;4.60;;;;;;;8.90;82.14;98561.48;104310;1276;75745;-24
2022/09/21 00:06:21;;;;;;;6.20;4.70;;;;;;;8.71;83.21;98566.70;104248;1281;75632;-24
2022/09/21 00:08:48;;;;;;;8.20;4.70;;;;;;;8.52;84.19;98564.00;104536;1276;74379;-25
2022/09/21 00:11:26;;;;;;;7.80;4.10;;;;;;;8.28;85.44;98562.31;104558;1276;63383;-25
2022/09/21 00:13:59;;;;;;;5.60;4.10;;;;;;;8.65;84.76;98562.63;104329;1276;62088;-25
2022/09/21 00:16:27;;;;;;;4.70;4.10;;;;;;;8.77;84.05;98562.38;104277;1276;75843;-25
2022/09/21 00:18:54;;;;;;;5.80;4.10;;;;;;;8.72;84.17;98560.50;104706;1276;76800;-25
2022/09/21 00:21:22;;;;;;;5.90;4.80;;;;;;;8.61;84.60;98563.83;104642;1276;74287;-25
2022/09/21 00:23:49;;;;;;;6.20;4.70;;;;;;;8.44;85.38;98560.37;104642;1276;63066;-24
2022/09/21 00:26:18;;;;;;;6.50;3.90;;;;;;;8.25;86.25;98558.52;104593;1276;61779;-24
2022/09/21 00:28:45;;;;;;;6.20;4.20;;;;;;;8.69;85.00;98557.65;104560;1276;75776;-25
2022/09/21 00:31:14;;;;;;;5.60;4.10;;;;;;;9.04;82.98;98555.85;104632;1276;76779;-25
2022/09/21 00:33:42;;;;;;;7.30;4.80;;;;;;;8.88;83.24;98555.55;104299;1276;74020;-24
2022/09/21 00:36:15;;;;;;;6.80;4.60;;;;;;;8.65;84.37;98556.38;104437;1276;62008;-25
2022/09/21 00:38:42;;;;;;;7.00;4.90;;;;;;;8.45;85.38;98560.27;104295;1277;61386;-25
2022/09/21 00:41:09;;;;;;;5.60;4.00;;;;;;;8.31;86.60;98559.43;104390;1276;75420;-25
2022/09/21 00:43:41;;;;;;;5.80;4.50;;;;;;;8.76;85.67;98554.67;104540;1276;74937;-25
2022/09/21 00:46:27;;;;;;;6.90;4.50;;;;;;;9.19;83.48;98556.92;104530;1276;75141;-25
2022/09/21 00:48:54;;;;;;;5.80;4.70;;;;;;;9.09;83.32;98554.41;104391;1276;61742;-25
2022/09/21 00:51:21;;;;;;;6.70;4.70;;;;;;;8.84;84.33;98558.52;104385;1276;61995;-25
2022/09/21 00:53:51;;;;;;;6.50;5.10;;;;;;;8.67;85.29;98559.86;104659;1276;73518;-24
2022/09/21 00:56:19;;;;;;;4.50;3.50;;;;;;;8.55;86.11;98563.81;104537;1276;76761;-25
2022/09/21 00:58:48;;;;;;;5.40;3.70;;;;;;;9.00;84.96;98563.42;104632;1276;75227;-25
2022/09/21 01:01:17;;;;;;;6.10;4.30;;;;;;;9.49;82.70;98561.31;104559;1276;61997;-25
2022/09/21 01:03:45;;;;;;;6.30;4.70;;;;;;;9.50;81.89;98566.05;104499;1277;61813;-25
2022/09/21 01:06:13;;;;;;;8.10;4.60;;;;;;;9.27;82.40;98567.63;104438;1276;75871;-24
2022/09/21 01:08:40;;;;;;;6.80;4.50;;;;;;;9.00;83.25;98567.25;104377;1279;75952;-25
2022/09/21 01:11:28;;;;;;;4.90;3.30;;;;;;;8.76;84.03;98565.23;104428;1276;75144;-25
2022/09/21 01:14:18;;;;;;;5.00;3.40;;;;;;;9.14;83.41;98569.04;104559;1277;62430;-25
2022/09/21 01:16:55;;;;;;;7.40;4.80;;;;;;;9.49;82.04;98569.45;104371;1276;61818;-25
2022/09/21 01:19:25;;;;;;;6.10;4.40;;;;;;;9.39;81.80;98567.72;104611;1276;74687;-24
2022/09/21 01:21:57;;;;;;;7.70;5.40;;;;;;;9.15;82.60;98568.98;104475;1276;75764;-25
2022/09/21 01:24:49;;;;;;;6.30;4.50;;;;;;;8.94;83.51;98570.66;104481;1276;75429;-25
2022/09/21 01:27:42;;;;;;;5.30;4.10;;;;;;;8.77;84.59;98571.02;104565;1276;62527;-24
2022/09/21 01:30:18;;;;;;;6.90;5.00;;;;;;;9.28;83.67;98569.45;104520;1277;63069;-25
2022/09/21 01:33:08;;;;;;;8.10;5.10;;;;;;;9.43;82.45;98566.80;104265;1276;75811;-25
2022/09/21 01:35:38;;;;;;;8.30;5.80;;;;;;;9.24;82.95;98570.16;104404;1277;76776;-24
2022/09/21 01:38:12;;;;;;;7.00;5.10;;;;;;;8.99;84.03;98571.66;104449;1277;75767;-25
2022/09/21 01:40:41;;;;;;;7.90;5.50;;;;;;;8.77;85.19;98570.88;104495;1277;63014;-25
2022/09/21 01:43:28;;;;;;;6.80;4.90;;;;;;;8.57;86.60;98572.63;104454;1276;61514;-24
2022/09/21 01:45:55;;;;;;;6.90;4.90;;;;;;;9.08;85.26;98564.54;104613;1276;75621;-25
2022/09/21 01:48:23;;;;;;;6.60;5.20;;;;;;;9.45;83.52;98563.23;104473;1276;77003;-25
2022/09/21 01:50:55;;;;;;;8.20;5.20;;;;;;;9.45;83.14;98564.10;104522;1276;74409;-25
2022/09/21 01:53:25;;;;;;;9.30;6.20;;;;;;;9.23;83.62;98564.29;104533;1276;63439;-25
2022/09/21 01:55:54;;;;;;;9.30;6.10;;;;;;;8.97;84.88;98560.57;104571;1277;61086;-25
2022/09/21 01:58:33;;;;;;;8.10;4.90;;;;;;;8.80;85.71;98563.48;104617;1278;73382;-24
2022/09/21 02:01:00;;;;;;;7.50;4.30;;;;;;;9.26;84.97;98563.02;104361;1276;77234;-25
2022/09/21 02:03:44;;;;;;;6.70;4.90;;;;;;;9.66;83.09;98565.23;104371;1276;75616;-25
2022/09/21 02:06:11;;;;;;;8.90;5.70;;;;;;;9.67;82.60;98561.20;104592;1276;62164;-24
2022/09/21 02:08:38;;;;;;;9.80;6.00;;;;;;;9.39;83.27;98559.70;104628;1276;62051;-24
2022/09/21 02:11:06;;;;;;;7.80;5.30;;;;;;;9.11;84.58;98562.75;104633;1276;75751;-24
2022/09/21 02:13:36;;;;;;;5.80;3.80;;;;;;;8.87;85.83;98567.77;104644;1277;76967;-25
2022/09/21 02:16:20;;;;;;;5.60;3.80;;;;;;;9.25;84.99;98572.98;104535;1276;73676;-24
2022/09/21 02:19:09;;;;;;;7.70;4.70;;;;;;;9.62;82.93;98583.09;104468;1276;62841;-25
2022/09/21 02:21:58;;;;;;;6.70;4.80;;;;;;;9.57;82.50;98582.44;104588;1276;62133;-25
2022/09/21 02:24:38;;;;;;;6.70;4.50;;;;;;;9.36;83.39;98581.25;104548;1276;75648;-25
2022/09/21 02:27:27;;;;;;;8.60;6.10;;;;;;;9.03;84.64;98583.80;104317;1277;75944;-24
2022/09/21 02:30:00;;;;;;;6.50;4.00;;;;;;;8.77;86.53;98590.76;104393;1276;74268;-26
2022/09/21 02:32:41;;;;;;;7.30;4.20;;;;;;;9.28;84.96;98587.08;104495;1276;63138;-25
2022/09/21 02:35:20;;;;;;;6.30;4.70;;;;;;;9.58;83.26;98589.33;104556;1277;63076;-25
2022/09/21 02:37:48;;;;;;;12.70;4.80;;;;;;;9.61;83.11;98587.33;104560;1277;76554;-24
2022/09/21 02:40:35;;;;;;;7.80;5.50;;;;;;;9.30;83.72;98583.50;104628;1277;77381;-25
2022/09/21 02:43:06;;;;;;;9.10;5.30;;;;;;;8.97;85.25;98581.17;104672;1276;75232;-25
2022/09/21 02:45:41;;;;;;;5.80;3.80;;;;;;;8.69;87.03;98584.45;104547;1276;64756;-25
2022/09/21 02:48:13;;;;;;;5.60;3.90;;;;;;;9.14;86.31;98585.16;104265;1279;63080;-25
2022/09/21 02:50:45;;;;;;;6.30;4.50;;;;;;;9.49;84.37;98586.10;104523;1277;75488;-25
2022/09/21 02:53:14;;;;;;;6.80;5.00;;;;;;;9.43;83.88;98590.05;104299;1279;77023;-24
2022/09/21 02:55:41;;;;;;;7.40;4.60;;;;;;;9.26;84.15;98594.03;104329;1277;75214;-23
2022/09/21 02:58:08;;;;;;;6.10;4.70;;;;;;;9.09;84.82;98592.81;104254;1276;61972;-24
2022/09/21 03:00:35;;;;;;;5.50;4.00;;;;;;;8.89;86.04;98589.64;104221;1276;61053;-24
2022/09/21 03:03:22;;;;;;;6.10;3.70;;;;;;;9.17;85.55;98592.86;104522;1276;75426;-23
2022/09/21 03:05:52;;;;;;;6.80;4.80;;;;;;;9.65;83.13;98594.48;104573;1276;76041;-23
2022/09/21 03:08:19;;;;;;;7.00;4.90;;;;;;;9.63;82.88;98596.66;104497;1276;74281;-24
2022/09/21 03:10:46;;;;;;;6.30;4.60;;;;;;;9.34;83.65;98598.98;104532;1277;62017;-24
2022/09/21 03:13:13;;;;;;;6.30;4.00;;;;;;;9.11;84.26;98601.91;104645;1277;61195;-24
2022/09/21 03:15:40;;;;;;;5.10;3.60;;;;;;;8.88;85.27;98605.30;104658;1276;74438;-24
2022/09/21 03:18:11;;;;;;;5.90;4.00;;;;;;;9.05;85.26;98612.23;104542;1276;77043;-23
2022/09/21 03:20:39;;;;;;;5.20;3.90;;;;;;;9.50;83.47;98614.73;104584;1273;75411;-24
2022/09/21 03:23:06;;;;;;;7.70;4.10;;;;;;;9.45;82.54;98613.45;104345;1273;62125;-24
2022/09/21 03:25:33;;;;;;;7.30;4.80;;;;;;;9.26;83.26;98609.92;104736;1273;61685;-23
2022/09/21 03:28:01;;;;;;;7.00;4.60;;;;;;;8.93;84.59;98609.92;104719;1274;76549;-23
2022/09/21 03:30:28;;;;;;;5.30;3.10;;;;;;;8.80;85.74;98618.26;104661;1274;77165;-24
2022/09/21 03:32:55;;;;;;;6.20;3.90;;;;;;;9.28;84.39;98618.61;104650;1273;75629;-24
2022/09/21 03:35:25;;;;;;;6.20;4.40;;;;;;;9.67;82.28;98612.31;104590;1275;62024;-24
2022/09/21 03:37:53;;;;;;;5.30;3.70;;;;;;;9.73;81.70;98611.13;104589;1274;63202;-24
2022/09/21 03:40:22;;;;;;;4.90;3.70;;;;;;;9.50;82.22;98611.52;104862;1273;75457;-23
2022/09/21 03:42:49;;;;;;;6.80;4.70;;;;;;;9.17;83.35;98608.10;105044;1273;77027;-24
2022/09/21 03:45:16;;;;;;;6.00;3.60;;;;;;;8.88;84.95;98607.50;104664;1274;75257;-24
2022/09/21 03:47:43;;;;;;;4.50;3.10;;;;;;;8.69;85.71;98612.55;104559;1275;63376;-23
2022/09/21 03:50:10;;;;;;;5.90;4.00;;;;;;;8.94;85.36;98616.86;104619;1274;61557;-23
2022/09/21 03:52:38;;;;;;;6.30;4.00;;;;;;;9.31;83.70;98613.08;104657;1274;76595;-24
2022/09/21 03:55:07;;;;;;;6.00;4.50;;;;;;;9.30;83.23;98612.80;104821;1273;77202;-23
2022/09/21 03:57:34;;;;;;;5.10;4.00;;;;;;;9.10;83.99;98618.41;104743;1273;75692;-24
2022/09/21 04:00:03;;;;;;;9.10;3.90;;;;;;;8.89;84.74;98619.05;104736;1274;63078;-25
2022/09/21 04:02:30;;;;;;;3.80;2.60;;;;;;;8.74;85.74;98623.54;104892;1274;62746;-24
2022/09/21 04:04:58;;;;;;;5.70;3.10;;;;;;;9.21;84.38;98617.11;104674;1273;76585;-24
2022/09/21 04:07:25;;;;;;;7.40;4.10;;;;;;;9.54;82.10;98616.84;104614;1273;75748;-24
2022/09/21 04:09:52;;;;;;;5.00;3.80;;;;;;;9.50;82.25;98615.80;104582;1273;74065;-24
2022/09/21 04:12:22;;;;;;;5.60;3.80;;;;;;;9.27;82.88;98620.48;104621;1274;62851;-24
2022/09/21 04:14:49;;;;;;;5.10;4.00;;;;;;;9.20;83.18;98621.06;104974;1273;63464;-24
2022/09/21 04:17:17;;;;;;;5.90;4.20;;;;;;;9.02;83.97;98622.34;104878;1273;76532;-24
2022/09/21 04:19:44;;;;;;;4.20;2.80;;;;;;;8.85;84.79;98624.20;104666;1275;77264;-24
2022/09/21 04:22:11;;;;;;;3.80;2.90;;;;;;;9.31;83.62;98620.70;104676;1275;75345;-24
2022/09/21 04:24:41;;;;;;;5.10;3.60;;;;;;;9.79;81.47;98620.98;104995;1273;61757;-24
2022/09/21 04:27:08;;;;;;;3.90;3.40;;;;;;;9.90;81.31;98620.65;104592;1274;62010;-24
2022/09/21 04:29:35;;;;;;;6.20;4.30;;;;;;;9.71;80.89;98616.83;104654;1274;75354;-24
2022/09/21 04:32:03;;;;;;;5.50;4.20;;;;;;;9.40;81.85;98618.33;104557;1273;76129;-24
2022/09/21 04:34:30;;;;;;;4.30;3.30;;;;;;;9.13;83.30;98621.83;104568;1273;75481;-25
2022/09/21 04:36:58;;;;;;;3.80;2.70;;;;;;;8.93;83.88;98624.06;104731;1273;62789;-25
2022/09/21 04:39:25;;;;;;;4.60;2.70;;;;;;;9.35;83.19;98627.59;104607;1273;61882;-25
2022/09/21 04:41:52;;;;;;;5.80;3.80;;;;;;;9.88;81.04;98631.66;104599;1276;76526;-25
2022/09/21 04:44:19;;;;;;;5.20;3.70;;;;;;;9.79;80.46;98634.17;104621;1274;75601;-25
2022/09/21 04:46:46;;;;;;;4.10;3.40;;;;;;;9.62;80.96;98638.55;104864;1273;75139;-25
2022/09/21 04:49:13;;;;;;;5.50;3.70;;;;;;;9.44;81.97;98639.88;104672;1274;62236;-25
2022/09/21 04:51:40;;;;;;;5.50;3.70;;;;;;;9.26;82.61;98635.42;104618;1274;61872;-25
2022/09/21 04:54:07;;;;;;;3.50;2.70;;;;;;;9.12;83.32;98639.51;104581;1274;76583;-25
2022/09/21 04:56:34;;;;;;;4.40;2.90;;;;;;;9.56;82.85;98636.95;104635;1274;76840;-25
2022/09/21 04:59:01;;;;;;;5.80;3.50;;;;;;;10.04;80.71;98634.48;104837;1274;75467;-25
2022/09/21 05:01:28;;;;;;;6.20;3.70;;;;;;;10.07;80.35;98638.27;104700;1274;62745;-25
2022/09/21 05:04:00;;;;;;;5.50;4.00;;;;;;;9.95;80.58;98636.48;104801;1273;61968;-25
2022/09/21 05:06:31;;;;;;;6.00;4.00;;;;;;;9.70;80.98;98635.82;104832;1275;75634;-25
2022/09/21 05:11:44;;;;;;;4.20;2.50;;;;;;;9.16;83.25;98639.02;104909;1273;75337;-25
2022/09/21 05:14:11;;;;;;;7.10;3.50;;;;;;;9.74;81.45;98638.09;104712;1273;63086;-22
2022/09/21 05:16:39;;;;;;;5.00;3.70;;;;;;;10.16;79.70;98640.80;104991;1273;61699;-24
2022/09/21 05:19:06;;;;;;;5.90;3.90;;;;;;;10.26;79.78;98640.89;104851;1274;76507;-24
2022/09/21 05:21:35;;;;;;;5.70;3.60;;;;;;;10.16;80.11;98640.06;104752;1274;77020;-23
2022/09/21 05:24:02;;;;;;;7.30;4.50;;;;;;;9.75;80.97;98638.36;104695;1276;75095;-24
2022/09/21 05:26:29;;;;;;;4.20;2.80;;;;;;;9.38;82.37;98641.40;104608;1274;63114;-24
2022/09/21 05:28:57;;;;;;;4.30;2.90;;;;;;;9.66;81.68;98645.63;104993;1274;62721;-24
2022/09/21 05:31:46;;;;;;;3.90;3.10;;;;;;;10.05;79.83;98648.65;104669;1275;76536;-24
2022/09/21 05:34:23;;;;;;;5.10;2.90;;;;;;;10.22;78.77;98653.08;104741;1274;77369;-24
2022/09/21 05:37:07;;;;;;;4.50;3.20;;;;;;;10.11;78.81;98652.41;104720;1274;75868;-24
2022/09/21 05:39:34;;;;;;;5.50;4.40;;;;;;;9.89;79.59;98653.45;104595;1276;62827;-24
2022/09/21 05:42:02;;;;;;;5.80;3.30;;;;;;;9.74;80.35;98656.83;104575;1275;63184;-24
2022/09/21 05:44:30;;;;;;;4.00;3.00;;;;;;;9.51;81.29;98654.74;104743;1277;75532;-24
2022/09/21 05:47:16;;;;;;;5.60;3.30;;;;;;;9.73;80.53;98659.48;105058;1273;75920;-24
2022/09/21 05:50:04;;;;;;;3.90;3.40;;;;;;;10.18;78.33;98659.86;104702;1274;73036;-24
2022/09/21 05:52:38;;;;;;;5.80;3.70;;;;;;;10.27;78.16;98663.95;104719;1274;62002;-24
2022/09/21 05:55:11;;;;;;;7.50;4.10;;;;;;;10.26;78.77;98664.55;104750;1274;63104;-24
2022/09/21 05:58:11;;;;;;;6.60;4.10;;;;;;;10.11;78.73;98665.83;104684;1275;76561;-23
2022/09/21 06:00:48;;;;;;;5.80;4.10;;;;;;;9.89;79.55;98667.11;104605;1274;76767;-24
2022/09/21 06:03:25;;;;;;;4.30;2.30;;;;;;;9.80;80.67;98668.56;104459;1275;74600;-23
2022/09/21 06:05:52;;;;;;;4.30;3.30;;;;;;;10.50;78.87;98668.36;104628;1274;63005;-24
2022/09/21 06:08:19;;;;;;;4.30;3.30;;;;;;;11.05;76.70;98664.31;104809;1274;63313;-24
2022/09/21 06:10:47;;;;;;;4.30;3.10;;;;;;;11.14;75.36;98667.28;104875;1273;75537;-24
2022/09/21 06:13:14;;;;;;;6.80;3.80;;;;;;;10.87;75.46;98667.11;104435;1277;76984;-24
2022/09/21 06:15:41;;;;;;;5.90;3.60;;;;;;;10.69;76.92;98670.41;104890;1274;74530;-24
2022/09/21 06:18:09;;;;;;;5.40;4.00;;;;;;;10.54;77.55;98671.71;104762;1274;62138;-24
2022/09/21 06:20:42;;;;;;;4.40;3.50;;;;;;;10.32;78.17;98676.89;104997;1274;61974;-24
2022/09/21 06:23:11;;;;;;;3.80;2.00;;;;;;;10.20;78.68;98678.38;104778;1275;75274;-23
2022/09/21 06:25:38;;;;;;;4.80;3.40;;;;;;;10.70;78.61;98685.46;104571;1274;77387;-24
2022/09/21 06:28:11;;;;;;;4.60;3.10;;;;;;;11.18;74.99;98685.54;104825;1274;75788;-24
2022/09/21 06:30:40;;;;;;;4.10;3.10;;;;;;;11.23;75.11;98687.36;104742;1275;61911;-24
2022/09/21 06:33:08;;;;;;;4.70;3.60;;;;;;;11.01;75.33;98691.25;104990;1273;62115;-24
2022/09/21 06:35:35;;;;;;;5.60;3.50;;;;;;;10.76;75.87;98688.70;104643;1274;76256;-24
2022/09/21 06:38:04;;;;;;;4.80;3.60;;;;;;;10.41;77.94;98690.22;104582;1275;76956;-24
2022/09/21 06:40:33;;;;;;;5.10;4.00;;;;;;;10.18;78.48;98697.17;104539;1274;74509;-24
2022/09/21 06:43:01;;;;;;;3.70;2.60;;;;;;;10.08;78.86;98693.32;104595;1275;65107;-23
2022/09/21 06:45:29;;;;;;;4.40;3.30;;;;;;;10.54;77.95;98694.38;104724;1277;61148;-24
2022/09/21 06:47:56;;;;;;;9.70;3.20;;;;;;;11.06;76.77;98699.30;104940;1274;76851;-23
2022/09/21 06:50:24;;;;;;;4.60;3.30;;;;;;;11.22;76.04;98697.16;104715;1274;75977;-24
2022/09/21 06:52:51;;;;;;;7.30;3.90;;;;;;;11.21;75.70;98698.46;104784;1274;75307;-24
2022/09/21 06:55:18;;;;;;;5.40;4.00;;;;;;;10.76;76.68;98694.60;104576;1274;61973;-24
2022/09/21 06:57:45;;;;;;;6.30;4.00;;;;;;;10.60;77.85;98698.24;104707;1274;62025;-24
2022/09/21 07:00:13;;;;;;;5.20;2.80;;;;;;;10.45;77.90;98694.35;104816;1274;76616;-24
2022/09/21 07:02:44;;;;;;;5.50;3.60;;;;;;;10.53;77.43;98694.33;104666;1274;74951;-23
2022/09/21 07:05:11;;;;;;;4.30;3.20;;;;;;;10.74;76.78;98696.38;104604;1275;74336;-24
2022/09/21 07:07:39;;;;;;;5.40;3.80;;;;;;;10.75;76.35;98694.05;104581;1274;61874;-23
2022/09/21 07:10:07;;;;;;;5.10;3.70;;;;;;;10.54;77.13;98697.94;104901;1274;61896;-24
2022/09/21 07:12:43;;;;;;;4.50;3.50;;;;;;;10.58;77.75;98702.06;104733;1275;76732;-24
2022/09/21 07:15:10;;;;;;;8.20;4.40;;;;;;;10.53;77.93;98702.84;104799;1274;75872;-24
2022/09/21 07:17:38;;;;;;;5.10;3.20;;;;;;;10.51;77.91;98702.86;104919;1274;75752;-24
2022/09/21 07:20:06;;;;;;;3.80;2.60;;;;;;;11.07;77.27;98705.67;104977;1274;62071;-25
2022/09/21 07:22:34;;;;;;;4.80;3.50;;;;;;;11.48;74.64;98705.50;104757;1277;61945;-25
2022/09/21 07:25:03;;;;;;;5.30;3.40;;;;;;;11.55;74.17;98706.20;104982;1274;74316;-25
2022/09/21 07:27:30;;;;;;;5.60;3.30;;;;;;;11.42;74.73;98708.63;104780;1274;77144;-25
2022/09/21 07:29:57;;;;;;;4.70;3.70;;;;;;;11.35;75.61;98709.60;104495;1274;75558;-25
2022/09/21 07:32:25;;;;;;;5.90;4.10;;;;;;;11.13;76.48;98712.89;104627;1274;61669;-25
2022/09/21 07:34:55;;;;;;;8.00;4.50;;;;;;;10.89;77.16;98709.27;104738;1274;62653;-25
2022/09/21 07:37:23;;;;;;;4.30;3.10;;;;;;;10.68;78.12;98713.91;104708;1274;75297;-25
2022/09/21 07:39:51;;;;;;;3.70;3.00;;;;;;;11.08;77.27;98714.21;104534;1274;76114;-25
2022/09/21 07:42:20;;;;;;;5.00;3.80;;;;;;;11.39;75.19;98712.89;104518;1275;75550;-25
2022/09/21 07:44:47;;;;;;;6.20;4.00;;;;;;;11.32;75.27;98716.78;104721;1274;63069;-25
2022/09/21 07:47:15;;;;;;;3.80;3.00;;;;;;;11.27;75.10;98721.21;104642;1273;61164;-25
2022/09/21 07:49:42;;;;;;;5.80;3.80;;;;;;;11.24;75.49;98714.41;104730;1274;75497;-25
2022/09/21 07:52:09;;;;;;;4.90;3.60;;;;;;;11.32;75.98;98717.83;104877;1273;76872;-25
2022/09/21 07:54:37;;;;;;;5.50;4.00;;;;;;;11.60;75.49;98714.45;104902;1274;75300;-25
2022/09/21 07:59:50;;;;;;;3.80;2.50;;;;;;;11.66;74.42;98713.40;104564;1274;62811;-25
2022/09/21 08:02:16;;;;;;;4.60;2.60;;;;;;;12.17;72.43;98713.48;104955;1274;75528;-25
2022/09/21 08:04:44;;;;;;;4.70;3.00;;;;;;;12.64;70.65;98714.14;104912;1274;76794;-25
2022/09/21 08:07:12;;;;;;;4.40;3.00;;;;;;;12.65;69.34;98719.55;104926;1273;75483;-25
2022/09/21 08:09:39;;;;;;;4.00;2.60;;;;;;;12.38;69.23;98719.36;104909;1274;62818;-25
2022/09/21 08:12:07;;;;;;;5.00;3.00;;;;;;;12.04;70.31;98722.87;105030;1274;62771;-25
2022/09/21 08:14:35;;;;;;;3.30;2.80;;;;;;;11.81;70.92;98724.02;104923;1274;76430;-24
2022/09/21 08:17:03;;;;;;;4.10;2.40;;;;;;;11.75;71.60;98727.71;104736;1274;76174;-24
2022/09/21 08:19:30;;;;;;;3.30;2.50;;;;;;;11.68;72.05;98730.21;104651;1274;74289;-24
2022/09/21 08:21:57;;;;;;;5.00;3.50;;;;;;;11.49;73.01;98728.69;104630;1274;63164;-24
2022/09/21 08:24:25;;;;;;;2.80;2.10;;;;;;;11.37;73.97;98736.30;104612;1274;62722;-25
2022/09/21 08:26:54;;;;;;;3.30;2.20;;;;;;;11.90;73.63;98733.48;104649;1274;75422;-24
2022/09/21 08:29:23;;;;;;;6.00;2.60;;;;;;;12.54;71.06;98729.52;104648;1275;76998;-24
2022/09/21 08:31:52;;;;;;;3.90;2.70;;;;;;;12.79;69.82;98731.33;104790;1276;75466;-24
2022/09/21 08:34:19;;;;;;;3.20;2.50;;;;;;;12.68;68.88;98729.02;104891;1274;62960;-25
2022/09/21 08:36:46;;;;;;;3.40;2.70;;;;;;;12.50;69.11;98731.23;104558;1274;61868;-25
2022/09/21 08:39:20;;;;;;;4.20;2.40;;;;;;;12.28;69.41;98731.95;104607;1274;75451;-25
2022/09/21 08:42:13;;;;;;;4.30;2.90;;;;;;;11.96;70.81;98732.77;104574;1274;76753;-24
2022/09/21 08:45:06;;;;;;;4.10;3.10;;;;;;;11.61;72.79;98734.84;104699;1274;74096;-24
2022/09/21 08:47:45;;;;;;;4.90;3.20;;;;;;;11.26;73.79;98738.52;104613;1274;62624;-25
2022/09/21 08:50:38;;;;;;;3.00;2.40;;;;;;;11.05;75.50;98739.35;104527;1274;62060;-24
2022/09/21 08:53:10;;;;;;;5.10;2.90;;;;;;;11.38;74.41;98734.67;104589;1275;75488;-25
2022/09/21 08:55:37;;;;;;;3.70;3.00;;;;;;;11.73;74.20;98739.19;104558;1274;76035;-25
2022/09/21 08:58:20;;;;;;;5.00;3.30;;;;;;;11.67;73.22;98739.59;104557;1273;75352;-25
2022/09/21 09:00:47;;;;;;;3.70;2.90;;;;;;;11.73;74.07;98735.55;104600;1273;61231;-25
2022/09/21 09:03:14;;;;;;;4.80;3.20;;;;;;;11.79;74.94;98740.77;104577;1273;62237;-25
2022/09/21 09:06:03;;;;;;;4.00;2.90;;;;;;;11.80;73.98;98739.81;104623;1274;75620;-24
2022/09/21 09:09:10;;;;;;;4.10;3.10;;;;;;;11.66;73.46;98736.54;104729;1273;75944;-24
2022/09/21 09:11:51;;;;;;;3.80;2.30;;;;;;;11.61;74.59;98737.80;104590;1274;75371;-25
2022/09/21 09:14:21;;;;;;;4.30;2.60;;;;;;;12.08;72.51;98736.52;104613;1274;61791;-25
2022/09/21 09:16:55;;;;;;;3.00;2.60;;;;;;;12.35;71.89;98735.66;104576;1273;63492;-25
2022/09/21 09:19:27;;;;;;;;;;;;;;;12.29;71.93;98736.23;104601;1273;76512;-25
2022/09/21 09:21:54;;;;;;;4.60;2.80;;;;;;;12.12;71.74;98734.95;104740;1274;77525;-24
2022/09/21 09:24:38;;;;;;;4.90;3.00;;;;;;;12.12;72.79;98734.00;104736;1273;75386;-24
2022/09/21 09:27:13;;;;;;;4.30;2.80;;;;;;;12.12;72.51;98732.20;104487;1274;63077;-25
2022/09/21 09:29:47;;;;;;;4.30;2.90;;;;;;;12.31;72.68;98731.52;104579;1273;62185;-25
2022/09/21 09:32:16;;;;;;;3.50;3.00;;;;;;;12.35;70.90;98731.45;104579;1273;76575;-25
2022/09/21 09:34:48;;;;;;;5.20;3.40;;;;;;;12.17;71.07;98730.37;104441;1273;77165;-24
2022/09/21 09:37:16;;;;;;;2.60;1.90;;;;;;;12.24;72.01;98732.15;104558;1273;75363;-24
2022/09/21 09:39:48;;;;;;;2.90;1.80;;;;;;;12.77;69.83;98728.85;104578;1273;62155;-24
2022/09/21 09:42:20;;;;;;;2.90;2.20;;;;;;;13.36;67.10;98728.82;104485;1274;63042;-24
2022/09/21 09:44:55;;;;;;;4.00;2.70;;;;;;;13.58;66.68;98723.03;104627;1274;75915;-24
2022/09/21 09:47:25;;;;;;;3.80;2.90;;;;;;;13.63;67.08;98723.27;104538;1274;77039;-25
2022/09/21 09:50:05;;;;;;;4.40;3.30;;;;;;;13.51;66.46;98725.71;104691;1274;74440;-24
2022/09/21 09:52:32;;;;;;;3.60;2.60;;;;;;;13.38;67.15;98725.51;104753;1274;62029;-25
2022/09/21 09:55:00;;;;;;;4.50;3.00;;;;;;;13.31;67.16;98721.66;104661;1273;61439;-25
2022/09/21 09:57:32;;;;;;;8.00;3.20;;;;;;;13.28;67.66;98722.27;104486;1275;74714;-25
2022/09/21 10:00:07;;;;;;;3.30;3.00;;;;;;;13.27;67.63;98722.94;104491;1273;75886;-25
2022/09/21 10:02:51;;;;;;;3.70;2.40;;;;;;;12.96;68.08;98718.06;104604;1273;74409;-25
2022/09/21 10:05:22;;;;;;;;;;;;;;;12.93;68.56;98722.31;104610;1273;61778;-25
2022/09/21 10:07:50;;;;;;;3.80;2.70;;;;;;;12.97;67.92;98723.70;104591;1273;62553;-25
2022/09/21 10:10:34;;;;;;;3.10;2.40;;;;;;;13.20;67.36;98718.33;104476;1274;76768;-25
2022/09/21 10:13:04;;;;;;;3.60;2.30;;;;;;;13.15;67.35;98722.19;104525;1273;76971;-24
2022/09/21 10:15:31;;;;;;;3.60;2.80;;;;;;;13.52;66.41;98714.70;104995;1273;74268;-25
2022/09/21 10:18:28;;;;;;;2.70;2.00;;;;;;;13.87;65.92;98714.39;104674;1273;63227;-25
2022/09/21 10:21:20;;;;;;;2.20;1.90;;;;;;;13.80;64.83;98710.61;104576;1274;62059;-25
2022/09/21 10:23:56;;;;;;;4.20;1.80;;;;;;;14.04;63.56;98708.33;104617;1274;75725;-25
2022/09/21 10:26:23;;;;;;;3.10;2.30;;;;;;;13.92;63.41;98706.63;104627;1273;77223;-24
2022/09/21 10:28:55;;;;;;;2.10;1.80;;;;;;;13.83;63.90;98707.33;104828;1273;75438;-25
2022/09/21 10:31:24;;;;;;;2.40;1.90;;;;;;;14.13;63.20;98704.11;103987;1273;997833;-25
2022/09/21 10:33:54;;;;;;;2.20;1.60;;;;;;;14.57;61.32;98703.50;104776;1273;63017;-23
2022/09/21 10:36:28;;;;;;;2.40;1.50;;;;;;;15.07;59.98;98706.23;104507;1273;75574;-25
2022/09/21 10:38:55;;;;;;;2.50;1.60;;;;;;;15.22;59.90;98704.34;104477;1273;75960;-25
2022/09/21 10:41:23;;;;;;;2.40;1.50;;;;;;;14.68;60.95;98707.46;104649;1273;75425;-24
2022/09/21 10:43:50;;;;;;;2.80;1.80;;;;;;;13.97;62.57;98700.55;104617;1273;61884;-25
2022/09/21 10:46:17;;;;;;;2.50;1.60;;;;;;;14.34;63.25;98700.73;104640;1273;61721;-25
2022/09/21 10:48:44;;;;;;;2.40;1.60;;;;;;;14.83;61.05;98701.69;104405;1275;76583;-25
2022/09/21 10:51:21;;;;;;;3.80;1.70;;;;;;;14.78;62.50;98702.23;104718;1274;77022;-25
2022/09/21 10:53:48;;;;;;;3.80;1.70;;;;;;;14.53;61.93;98707.73;104399;1273;75515;-25
2022/09/21 10:56:20;;;;;;;8.00;1.80;;;;;;;14.24;62.83;98704.77;104536;1273;61708;-25
2022/09/21 10:59:20;;;;;;;2.20;1.40;;;;;;;13.97;62.00;98701.77;104534;1274;63089;-25
2022/09/21 11:01:52;;;;;;;2.20;1.80;;;;;;;13.92;63.58;98695.96;104505;1273;76589;-25
2022/09/21 11:04:23;;;;;;;2.80;1.90;;;;;;;13.69;64.20;98697.20;104576;1274;77374;-25
2022/09/21 11:06:57;;;;;;;2.00;1.60;;;;;;;13.99;65.87;98695.10;104596;1273;74285;-25
2022/09/21 11:09:57;;;;;;;1.80;1.50;;;;;;;14.72;63.04;98687.62;104402;1274;62787;-25
2022/09/21 11:12:27;;;;;;;1.60;1.40;;;;;;;15.02;59.80;98689.91;104632;1273;63081;-25
2022/09/21 11:15:13;;;;;;;2.20;1.40;;;;;;;15.40;59.51;98686.86;104669;1274;76546;-26
2022/09/21 11:17:47;;;;;;;1.30;1.00;;;;;;;15.95;57.87;98682.36;104591;1273;76925;-25
2022/09/21 11:20:26;;;;;;;2.10;1.60;;;;;;;16.19;56.57;98679.06;104554;1273;75289;-24
2022/09/21 11:23:00;;;;;;;3.00;1.60;;;;;;;15.06;59.04;98679.93;104463;1273;62965;-25
2022/09/21 11:25:57;;;;;;;2.60;1.70;;;;;;;14.49;60.86;98679.92;104459;1273;62757;-25
2022/09/21 11:28:32;;;;;;;2.30;1.50;;;;;;;14.43;61.12;98680.80;104647;1273;76326;-25
2022/09/21 11:31:19;;;;;;;3.40;1.50;;;;;;;15.04;59.76;98678.54;104414;1273;76005;-25
2022/09/21 11:34:09;;;;;;;3.10;1.40;;;;;;;15.20;57.95;98675.45;104544;1273;75137;-25
2022/09/21 11:36:51;;;;;;;1.40;1.20;;;;;;;15.02;58.50;98676.27;104618;1274;61094;-24
2022/09/21 11:39:30;;;;;;;1.30;1.20;;;;;;;15.56;58.48;98671.14;104472;1273;62863;-24
2022/09/21 11:42:04;;;;;;;2.70;1.80;;;;;;;14.96;58.73;98675.27;104578;1274;76595;-25
2022/09/21 11:44:52;;;;;;;3.60;2.00;;;;;;;13.78;62.73;98675.39;104484;1274;76881;-25
2022/09/21 11:47:30;;;;;;;6.50;4.50;;;;;;;13.45;63.74;98671.96;104511;1274;75121;-24
2022/09/21 11:50:18;;;;;;;4.50;2.60;;;;;;;13.90;62.34;98671.08;104580;1273;62146;-24
2022/09/21 11:53:15;;;;;;;2.30;1.80;;;;;;;14.50;60.80;98667.32;104540;1274;63065;-25
2022/09/21 11:56:21;;;;;;;1.50;1.40;;;;;;;14.55;59.76;98664.48;104579;1273;75527;-24
2022/09/21 11:58:50;;;;;;;1.40;1.30;;;;;;;14.18;58.31;98662.95;104532;1273;77366;-24